tititudorancea.com
Station Historical Data
Daily Summary for August 31, 2018 Units:  Metric    English   Both
« Previous Day
Next Day »
Daily Weekly Monthly Yearly Custom
  High: Low: Average:
Temperature: -17.8 °C 6.9 °C 10.3 °C
Dew Point: -17.8 °C -0.4 °C 6.8 °C
Humidity: Humidity % 42 % 81 %
Wind Speed: 0 km/h 0 km/h 14 km/h
Wind Gust: 0 km/h - -
Wind:- - SSW
Pressure: 0 hPa 996.5 hPa -
Precipitation: 15.19 mm    
Historical Graphs
 
 
Ararat weather Find more about Weather in Ararat, AU


 



 


Tabular Data for August 31, 2018
Time Temperature Dew Point Pressure Wind Wind Speed Wind Gust Humidity Rainfall Rate (Hourly)
-17.8 °C -17.8 °C 0 hPa Calm     Humidity % 0 mm
00:04 12.2 °C -0.4 °C 1002.6 hPa North 55.5 km/h 31.5 km/h 42 % 0 mm
00:09 12.1 °C -0.1 °C 1002.6 hPa North 42.6 km/h 25.6 km/h 43 % 0 mm
00:14 12.1 °C -0.1 °C 1002.3 hPa NNE 37 km/h 24.1 km/h 43 % 0 mm
00:19 12.1 °C 0.2 °C 1001.9 hPa North 31.5 km/h 15.6 km/h 44 % 0 mm
00:24 12 °C 0.7 °C 1001.6 hPa NNE 33.3 km/h 19.3 km/h 46 % 0 mm
00:29 12.1 °C 0.4 °C 1001.6 hPa North 31.5 km/h 22 km/h 45 % 0 mm
00:34 12.1 °C 0.4 °C 1001.6 hPa NNE 31.5 km/h 25.1 km/h 45 % 0 mm
00:39 11.9 °C 0.4 °C 1001.2 hPa NNE 33.3 km/h 20.9 km/h 45 % 0 mm
00:44 11.8 °C -0.1 °C 1000.9 hPa North 33.3 km/h 24.9 km/h 44 % 0 mm
00:49 11.8 °C -0.1 °C 1001.2 hPa NNE 38.9 km/h 28 km/h 44 % 0 mm
00:54 11.9 °C 0 °C 1001.2 hPa North 37 km/h 19 km/h 44 % 0 mm
00:59 11.9 °C 0.1 °C 1001.2 hPa NNE 33.8 km/h 23.8 km/h 44 % 0 mm
01:04 12.1 °C 0.2 °C 1001.2 hPa NNE 48.1 km/h 18.3 km/h 44 % 0 mm
01:09 12.1 °C 0.2 °C 1000.9 hPa NNE 50 km/h 25.9 km/h 44 % 0 mm
01:14 12.1 °C 0.2 °C 1000.9 hPa NNE 32.2 km/h 15.8 km/h 44 % 0 mm
01:19 12.2 °C 0.3 °C 1000.9 hPa NNE 33.3 km/h 19.6 km/h 44 % 0 mm
01:24 12.2 °C 0.3 °C 1000.6 hPa NNE 37 km/h 17.7 km/h 44 % 0 mm
01:29 12.2 °C 0.3 °C 1000.6 hPa NNE 25.9 km/h 21.1 km/h 44 % 0 mm
01:34 12.2 °C 0.3 °C 1000.6 hPa North 31.5 km/h 20.4 km/h 44 % 0 mm
01:39 12.1 °C 0.8 °C 1000.6 hPa NNE 18.5 km/h 11.3 km/h 46 % 0 mm
01:44 12.1 °C 0.8 °C 1000.6 hPa North 24.1 km/h 14.6 km/h 46 % 0 mm
01:49 12.1 °C 0.8 °C 1000.6 hPa North 14.8 km/h 13.7 km/h 46 % 0 mm
01:54 12.1 °C 0.8 °C 1000.2 hPa NW 19.3 km/h 13 km/h 46 % 0 mm
01:59 11.9 °C 0.7 °C 1000.6 hPa NNW 16.7 km/h 12.7 km/h 46 % 0 mm
02:04 11.8 °C 0.8 °C 1000.6 hPa NNW 22.2 km/h 11.6 km/h 47 % 0 mm
02:09 11.7 °C 0.8 °C 1000.6 hPa North 24.1 km/h 13 km/h 47 % 0 mm
02:14 11.6 °C 1.2 °C 1000.9 hPa NNW 16.7 km/h 13.7 km/h 49 % 0 mm
02:19 11.5 °C 1.2 °C 1000.9 hPa North 18.5 km/h 13 km/h 49 % 0 mm
02:24 11.4 °C 1.1 °C 1000.6 hPa North 18.5 km/h 15.4 km/h 49 % 0 mm
02:29 11.3 °C 1.3 °C 1000.6 hPa North 16.7 km/h 10 km/h 50 % 0 mm
02:34 11.2 °C 1.4 °C 1000.6 hPa NNE 18.5 km/h 13.4 km/h 51 % 0 mm
02:39 11.1 °C 1.6 °C 1000.2 hPa North 31.5 km/h 20.3 km/h 52 % 0 mm
02:44 10.9 °C 2.2 °C 1000.2 hPa North 14.8 km/h 9 km/h 55 % 0 mm
02:49 10.6 °C 2.4 °C 1000.2 hPa North 38.9 km/h 17.4 km/h 57 % 0.2 mm
02:54 10.4 °C 2.2 °C 1000.2 hPa North 29.6 km/h 16.4 km/h 57 % 0.2 mm
02:59 10.2 °C 3 °C 1000.2 hPa NNW 35.2 km/h 16.9 km/h 61 % 0.2 mm
03:04 9.9 °C 3.2 °C 1000.2 hPa North 31.5 km/h 19.3 km/h 63 % 0.2 mm
03:09 9.5 °C 3.7 °C 1000.2 hPa North 22.2 km/h 9.8 km/h 67 % 0.61 mm
03:14 9.1 °C 4.1 °C 1000.2 hPa North 13 km/h 9.8 km/h 71 % 0.61 mm
03:19 8.8 °C 4.2 °C 1000.2 hPa North 18.5 km/h 14.3 km/h 73 % 0.99 mm
03:24 8.6 °C 4.2 °C 1000.2 hPa North 16.7 km/h 9.3 km/h 74 % 1.19 mm
03:29 8.3 °C 4.3 °C 1000.2 hPa North 16.1 km/h 10 km/h 76 % 1.6 mm
03:34 8 °C 4.4 °C 999.9 hPa North 14.8 km/h 7.7 km/h 78 % 2.21 mm
03:39 7.7 °C 4.5 °C 999.5 hPa North 11.1 km/h 7.9 km/h 80 % 2.39 mm
03:44 7.6 °C 4.7 °C 999.5 hPa North 16.7 km/h 8.2 km/h 82 % 2.59 mm
03:49 7.4 °C 4.7 °C 999.9 hPa North 13 km/h 7.2 km/h 83 % 2.79 mm
03:54 7.3 °C 4.8 °C 999.9 hPa North 22.2 km/h 14.5 km/h 84 % 3.2 mm
03:59 7.3 °C 5 °C 999.5 hPa North 18.5 km/h 10.8 km/h 85 % 3.61 mm
04:04 7.3 °C 4.9 °C 999.5 hPa North 24.1 km/h 8.5 km/h 85 % 3.81 mm
04:09 7.2 °C 5.1 °C 999.5 hPa North 16.7 km/h 9.3 km/h 86 % 3.99 mm
04:14 7.2 °C 5 °C 999.5 hPa NNE 20.4 km/h 11.1 km/h 86 % 4.39 mm
04:19 7.1 °C 4.9 °C 999.5 hPa North 18.5 km/h 13.7 km/h 86 % 4.39 mm
04:24 7.2 °C 5.2 °C 999.5 hPa North 20.4 km/h 10 km/h 87 % 4.6 mm
04:29 7.2 °C 5.2 °C 999.5 hPa NNE 18.5 km/h 7.4 km/h 87 % 4.8 mm
04:34 7.1 °C 5.3 °C 999.5 hPa NNE 20.4 km/h 10 km/h 88 % 4.8 mm
04:39 7.1 °C 5.2 °C 999.5 hPa North 14.8 km/h 11.7 km/h 88 % 5 mm
04:44 7 °C 5.2 °C 999.2 hPa North 14.5 km/h 9 km/h 88 % 5.59 mm
04:49 7 °C 5.2 °C 999.2 hPa North 16.1 km/h 10.8 km/h 88 % 5.41 mm
04:54 7 °C 5.3 °C 999.2 hPa North 9.3 km/h 6.9 km/h 89 % 5.41 mm
04:59 7 °C 5.3 °C 999.2 hPa North 16.7 km/h 10.9 km/h 89 % 5.21 mm
05:04 7.1 °C 5.5 °C 999.2 hPa North 14.8 km/h 7.6 km/h 90 % 5.21 mm
05:09 7.1 °C 5.5 °C 999.2 hPa North 11.1 km/h 7.6 km/h 90 % 5 mm
05:14 7.1 °C 5.6 °C 999.2 hPa North 7.4 km/h 6.1 km/h 90 % 4.8 mm
05:19 7.1 °C 5.5 °C 998.9 hPa North 11.1 km/h 8.5 km/h 90 % 4.8 mm
05:24 7 °C 5.4 °C 998.9 hPa North 9.3 km/h 4.3 km/h 90 % 4.6 mm
05:29 7 °C 5.6 °C 998.9 hPa North 7.4 km/h 6.3 km/h 91 % 4.19 mm
05:34 7 °C 5.6 °C 998.9 hPa North 7.4 km/h 6.3 km/h 91 % 3.99 mm
05:39 7 °C 5.6 °C 998.9 hPa North 5.6 km/h 2.7 km/h 91 % 3.81 mm
05:44 7 °C 5.6 °C 999.2 hPa North 6.4 km/h 5.6 km/h 91 % 3.2 mm
05:49 6.9 °C 5.6 °C 999.2 hPa North 5.6 km/h 3.4 km/h 91 % 3.2 mm
05:54 6.9 °C 5.6 °C 998.9 hPa North 6.4 km/h 5.5 km/h 91 % 3 mm
05:59 7 °C 5.8 °C 998.9 hPa North 9.7 km/h 5.5 km/h 92 % 3.2 mm
06:04 7.2 °C 5.9 °C 998.5 hPa North 11.1 km/h 7.4 km/h 92 % 3.2 mm
06:09 7.6 °C 6.5 °C 998.5 hPa North 14.8 km/h 10.3 km/h 93 % 3.2 mm
06:14 8 °C 7.1 °C 998.5 hPa North 20.4 km/h 11.3 km/h 94 % 3.2 mm
06:19 8.2 °C 7.2 °C 998.5 hPa North 11.1 km/h 7.7 km/h 93 % 2.79 mm
06:24 8.3 °C 7.2 °C 998.2 hPa NNE 16.7 km/h 13.5 km/h 93 % 2.79 mm
06:29 8.3 °C 7.3 °C 998.2 hPa North 14.8 km/h 8.7 km/h 93 % 2.79 mm
06:34 8.3 °C 7.3 °C 997.9 hPa North 9.7 km/h 8.9 km/h 93 % 2.39 mm
06:39 8.4 °C 7.3 °C 997.9 hPa North 11.1 km/h 8.2 km/h 93 % 2.21 mm
06:44 8.4 °C 7.4 °C 998.2 hPa North 14.5 km/h 9.3 km/h 93 % 2.01 mm
06:49 8.5 °C 7.4 °C 998.2 hPa North 18.5 km/h 15.6 km/h 93 % 1.8 mm
06:54 8.5 °C 7.4 °C 997.9 hPa North 18.5 km/h 14.2 km/h 93 % 1.6 mm
06:59 8.5 °C 7.4 °C 997.9 hPa North 12.9 km/h 10.3 km/h 93 % 1.19 mm
07:04 8.4 °C 7.4 °C 997.9 hPa North 17.7 km/h 12.1 km/h 93 % 0.99 mm
07:09 8.3 °C 7.3 °C 997.9 hPa North 20.4 km/h 11.6 km/h 93 % 0.61 mm
07:14 8.3 °C 7.2 °C 997.9 hPa North 14.8 km/h 9.7 km/h 93 % 0.41 mm
07:19 8.2 °C 7.1 °C 997.9 hPa NNE 25.7 km/h 14.5 km/h 93 % 0.41 mm
07:24 8.2 °C 7.1 °C 997.5 hPa NNE 18.5 km/h 14.2 km/h 93 % 0.2 mm
07:29 8.2 °C 7.1 °C 997.5 hPa NNE 13 km/h 9.3 km/h 93 % 0.2 mm
07:34 8.1 °C 7.1 °C 997.9 hPa NNE 13 km/h 10 km/h 93 % 0.2 mm
07:39 8.2 °C 7.1 °C 997.9 hPa NNE 9.3 km/h 5.8 km/h 93 % 0.2 mm
07:44 8.2 °C 7.1 °C 997.9 hPa NNE 11.3 km/h 8.9 km/h 93 % 0.41 mm
07:49 8 °C 6.9 °C 997.9 hPa NNE 11.1 km/h 8 km/h 93 % 0.41 mm
07:54 7.8 °C 6.8 °C 998.2 hPa NNE 13 km/h 7.6 km/h 93 % 0.41 mm
07:59 7.7 °C 6.7 °C 998.2 hPa NNE 11.1 km/h 8.7 km/h 93 % 0.41 mm
08:04 7.6 °C 6.6 °C 997.9 hPa NNE 11.1 km/h 7.9 km/h 93 % 0.41 mm
08:09 7.6 °C 6.5 °C 997.9 hPa NNE 9.3 km/h 6.1 km/h 93 % 0.41 mm
08:14 7.6 °C 6.5 °C 997.9 hPa NNE 5.6 km/h 1.4 km/h 93 % 0.41 mm
08:19 7.7 °C 6.8 °C 997.9 hPa NNE 5.6 km/h 1.1 km/h 94 % 0.41 mm
08:24 7.8 °C 6.9 °C 997.9 hPa NNE 7.4 km/h 5.8 km/h 94 % 0.41 mm
08:29 7.9 °C 7.1 °C 997.9 hPa NNE 6.4 km/h 3.5 km/h 94 % 0.2 mm
08:34 8.1 °C 7.2 °C 997.9 hPa NNE 5.6 km/h 3.9 km/h 94 % 0.2 mm
08:39 8.4 °C 7.5 °C 997.9 hPa NNE 9.3 km/h 5.8 km/h 94 % 0.2 mm
08:44 8.7 °C 7.8 °C 997.9 hPa NNE 14.5 km/h 11.1 km/h 94 % 0 mm
08:49 8.8 °C 7.9 °C 997.9 hPa NNE 11.1 km/h 6.9 km/h 94 % 0 mm
08:54 8.9 °C 8 °C 997.9 hPa NNE 14.8 km/h 11.1 km/h 94 % 0 mm
08:59 9.1 °C 8.2 °C 997.9 hPa NNE 13 km/h 8.9 km/h 94 % 0 mm
09:04 9.1 °C 8.2 °C 997.9 hPa NNE 11.1 km/h 5.6 km/h 94 % 0 mm
09:09 9 °C 8.1 °C 997.9 hPa NNE 11.3 km/h 5.8 km/h 94 % 0 mm
09:14 9 °C 8.1 °C 997.9 hPa NNE 9.3 km/h 4.3 km/h 94 % 0 mm
09:19 9.1 °C 8.2 °C 997.5 hPa NNE 13 km/h 13.2 km/h 94 % 0 mm
09:24 9.3 °C 8.4 °C 997.5 hPa North 14.8 km/h 13.2 km/h 94 % 0 mm
09:29 9.5 °C 8.6 °C 997.2 hPa North 19.3 km/h 15 km/h 94 % 0 mm
09:34 9.7 °C 8.6 °C 997.2 hPa North 16.7 km/h 8.9 km/h 93 % 0 mm
09:39 9.8 °C 8.7 °C 997.2 hPa North 18.5 km/h 9.8 km/h 93 % 0 mm
09:44 9.9 °C 8.9 °C 997.2 hPa North 14.8 km/h 9.5 km/h 93 % 0 mm
09:49 9.9 °C 8.7 °C 997.2 hPa North 18.5 km/h 11.4 km/h 92 % 0 mm
09:54 9.9 °C 8.7 °C 997.2 hPa North 18.5 km/h 11.6 km/h 92 % 0 mm
09:59 9.9 °C 8.7 °C 997.2 hPa North 20.4 km/h 6.9 km/h 92 % 0 mm
10:04 9.9 °C 8.5 °C 997.2 hPa NNW 16.7 km/h 11.3 km/h 91 % 0 mm
10:09 9.9 °C 8.7 °C 997.2 hPa NNW 16.1 km/h 10.5 km/h 92 % 0 mm
10:14 9.8 °C 8.6 °C 997.2 hPa NNW 18.5 km/h 6.8 km/h 92 % 0 mm
10:19 9.9 °C 8.7 °C 997.2 hPa NNW 8 km/h 7.6 km/h 92 % 0 mm
10:24 10.1 °C 8.8 °C 997.2 hPa NNW 5.6 km/h 2.7 km/h 92 % 0 mm
10:29 10.1 °C 8.8 °C 997.2 hPa North 13 km/h 7.7 km/h 92 % 0 mm
10:34 10 °C 8.8 °C 997.2 hPa North 14.8 km/h 8.9 km/h 92 % 0 mm
10:39 10 °C 8.8 °C 997.2 hPa North 16.1 km/h 11.4 km/h 92 % 0 mm
10:44 10.1 °C 8.9 °C 997.2 hPa North 11.1 km/h 9.7 km/h 92 % 0 mm
10:49 10.2 °C 9 °C 997.2 hPa North 11.3 km/h 7.4 km/h 92 % 0 mm
10:54 10.4 °C 9.2 °C 997.2 hPa NNW 16.7 km/h 12.9 km/h 92 % 0 mm
10:59 10.6 °C 9.2 °C 996.8 hPa NNW 13 km/h 9.8 km/h 91 % 0 mm
11:04 10.9 °C 9.6 °C 996.8 hPa North 11.1 km/h 7.6 km/h 91 % 0 mm
11:09 11.1 °C 9.4 °C 997.2 hPa NNW 14.8 km/h 10.1 km/h 89 % 0 mm
11:14 11.2 °C 9.3 °C 997.2 hPa NNW 11.1 km/h 6.9 km/h 88 % 0 mm
11:19 11.2 °C 9.1 °C 997.2 hPa NNW 11.1 km/h 7.4 km/h 87 % 0 mm
11:24 11.2 °C 8.9 °C 997.2 hPa North 14.8 km/h 5.6 km/h 86 % 0 mm
11:29 11.2 °C 8.9 °C 996.8 hPa North 9.7 km/h 7.1 km/h 86 % 0 mm
11:34 11.3 °C 9 °C 997.2 hPa North 6.4 km/h 4.8 km/h 86 % 0 mm
11:39 11.4 °C 9.1 °C 997.2 hPa North 9.3 km/h 7.2 km/h 86 % 0 mm
11:44 11.4 °C 9.1 °C 996.8 hPa North 11.3 km/h 6.8 km/h 86 % 0 mm
11:49 11.3 °C 9.2 °C 996.8 hPa North 11.1 km/h 6.4 km/h 87 % 0 mm
11:54 11.3 °C 9.2 °C 996.8 hPa North 9.3 km/h 4.7 km/h 87 % 0 mm
11:59 11.2 °C 9.1 °C 996.8 hPa North 14.8 km/h 7.7 km/h 87 % 0 mm
12:04 11.2 °C 9.1 °C 996.8 hPa NNW 8 km/h 3.5 km/h 87 % 0 mm
12:09 11.3 °C 9.2 °C 996.8 hPa North 7.4 km/h 6.6 km/h 87 % 0 mm
12:14 11.4 °C 9.5 °C 996.8 hPa NNW 9.7 km/h 5.3 km/h 88 % 0 mm
12:19 11.8 °C 10.1 °C 996.8 hPa NNW 9.3 km/h 5.1 km/h 89 % 0 mm
12:24 11.8 °C 9.7 °C 996.5 hPa NNW 13 km/h 8 km/h 87 % 0 mm
12:29 12 °C 9.6 °C 996.5 hPa NNW 13 km/h 5.8 km/h 85 % 0 mm
12:34 12.2 °C 9.6 °C 996.5 hPa North 5.6 km/h 5 km/h 84 % 0 mm
12:39 12.3 °C 9.7 °C 996.5 hPa North 11.1 km/h 7.4 km/h 84 % 0 mm
12:44 12.3 °C 9.5 °C 996.5 hPa NNW 14.8 km/h 8.7 km/h 83 % 0 mm
12:49 12.2 °C 9.2 °C 996.5 hPa NNW 13 km/h 9.2 km/h 82 % 0 mm
12:54 12.4 °C 9.2 °C 996.5 hPa NW 13 km/h 7.2 km/h 81 % 0 mm
12:59 12.6 °C 9.1 °C 996.5 hPa NW 11.1 km/h 10.5 km/h 79 % 0 mm
13:04 12.8 °C 9.2 °C 996.5 hPa North 9.3 km/h 9.2 km/h 79 % 0 mm
13:09 12.9 °C 8.9 °C 996.5 hPa NW 13 km/h 8.9 km/h 77 % 0 mm
13:14 12.8 °C 8.8 °C 996.5 hPa NW 18.5 km/h 11.6 km/h 77 % 0 mm
13:19 12.5 °C 8.8 °C 996.5 hPa NW 13 km/h 8 km/h 78 % 0 mm
13:24 12.4 °C 9.2 °C 996.5 hPa NW 14.8 km/h 9.8 km/h 81 % 0 mm
13:29 12.3 °C 9.1 °C 996.5 hPa NW 20.4 km/h 10 km/h 81 % 0 mm
13:34 12.4 °C 9.2 °C 996.5 hPa NW 16.7 km/h 10.6 km/h 81 % 0 mm
13:39 12.7 °C 9.7 °C 996.5 hPa NW 14.5 km/h 6.9 km/h 82 % 0 mm
13:44 12.7 °C 9.2 °C 996.5 hPa NW 16.7 km/h 9.5 km/h 79 % 0 mm
13:49 13 °C 9.3 °C 996.5 hPa NW 12.9 km/h 8.7 km/h 78 % 0 mm
13:54 13.1 °C 9.1 °C 996.5 hPa NW 13 km/h 6.3 km/h 77 % 0 mm
13:59 13.2 °C 9.3 °C 996.5 hPa NW 7.4 km/h 5.1 km/h 77 % 0 mm
14:04 13.2 °C 9.1 °C 996.5 hPa WNW 18.5 km/h 13 km/h 76 % 0 mm
14:09 13.6 °C 9.7 °C 996.5 hPa WNW 11.1 km/h 10 km/h 77 % 0 mm
14:14 13.8 °C 9.3 °C 996.5 hPa WNW 14.8 km/h 10.6 km/h 74 % 0 mm
14:19 13.7 °C 9.2 °C 996.8 hPa WNW 13 km/h 6.8 km/h 74 % 0 mm
14:24 13.5 °C 9.3 °C 996.8 hPa WNW 11.1 km/h 7.2 km/h 76 % 0 mm
14:29 13.1 °C 9.3 °C 996.8 hPa West 13 km/h 8.2 km/h 78 % 0.41 mm
14:34 13 °C 9.8 °C 996.8 hPa West 8 km/h 6.4 km/h 81 % 0.41 mm
14:39 12.9 °C 9.5 °C 996.8 hPa West 13 km/h 8.7 km/h 80 % 0.41 mm
14:44 12.8 °C 9.4 °C 996.8 hPa West 9.7 km/h 6.9 km/h 80 % 0.41 mm
14:49 12.7 °C 9.3 °C 996.8 hPa West 7.4 km/h 5.5 km/h 80 % 0.41 mm
14:54 12.5 °C 9.3 °C 997.2 hPa West 7.4 km/h 5.6 km/h 81 % 0.41 mm
14:59 12.6 °C 9.6 °C 997.2 hPa West 5.6 km/h 5.1 km/h 82 % 0.41 mm
15:04 12.7 °C 9.6 °C 997.2 hPa West 7.4 km/h 7.1 km/h 81 % 0.41 mm
15:09 12.8 °C 9.6 °C 997.2 hPa West 5.6 km/h 5.3 km/h 81 % 0.41 mm
15:14 12.8 °C 9.2 °C 997.2 hPa West 11.1 km/h 7.6 km/h 79 % 0.41 mm
15:19 12.8 °C 9.4 °C 997.5 hPa West 11.3 km/h 7.9 km/h 80 % 0.41 mm
15:24 13 °C 9.4 °C 997.2 hPa WNW 18.5 km/h 13 km/h 79 % 0.41 mm
15:29 13.3 °C 9.1 °C 997.2 hPa West 18.5 km/h 11.9 km/h 76 % 0 mm
15:34 13.6 °C 9.7 °C 997.5 hPa WNW 13 km/h 11.4 km/h 77 % 0 mm
15:39 13.8 °C 9.8 °C 997.5 hPa WNW 11.1 km/h 5.5 km/h 77 % 0 mm
15:44 13.8 °C 9.3 °C 997.5 hPa WNW 18.5 km/h 12.4 km/h 74 % 0 mm
15:49 13.9 °C 9.3 °C 997.5 hPa WNW 12.9 km/h 11.6 km/h 74 % 0 mm
15:54 13.8 °C 8.8 °C 997.5 hPa WNW 14.5 km/h 13.2 km/h 72 % 0 mm
15:59 13.4 °C 8.4 °C 997.9 hPa WNW 20.4 km/h 14.2 km/h 72 % 0 mm
16:04 13.2 °C 8.7 °C 998.2 hPa WNW 16.7 km/h 10.8 km/h 74 % 0 mm
16:09 12.9 °C 8.8 °C 998.2 hPa West 16.7 km/h 12.1 km/h 76 % 0 mm
16:14 12.1 °C 8.4 °C 998.5 hPa WSW 18.5 km/h 10 km/h 78 % 0.41 mm
16:19 11.7 °C 8.7 °C 998.2 hPa West 11.3 km/h 9.7 km/h 82 % 0.79 mm
16:24 11.3 °C 8.7 °C 998.5 hPa West 13 km/h 9.7 km/h 84 % 0.79 mm
16:29 11 °C 8.6 °C 998.2 hPa West 14.8 km/h 7.1 km/h 85 % 0.99 mm
16:34 10.9 °C 8.6 °C 998.5 hPa West 13 km/h 8.9 km/h 86 % 0.99 mm
16:39 11 °C 8.9 °C 998.5 hPa West 9.7 km/h 9 km/h 87 % 0.99 mm
16:44 11 °C 8.7 °C 998.5 hPa West 9.7 km/h 6 km/h 86 % 0.99 mm
16:49 11 °C 8.7 °C 998.5 hPa West 8 km/h 6.3 km/h 86 % 0.99 mm
16:54 10.9 °C 8.6 °C 998.9 hPa West 7.4 km/h 4.8 km/h 86 % 0.99 mm
16:59 10.7 °C 8.5 °C 998.9 hPa West 9.3 km/h 4.3 km/h 86 % 0.99 mm
17:04 10.7 °C 8.7 °C 999.2 hPa West 5.6 km/h 5 km/h 87 % 0.99 mm
17:09 10.7 °C 8.5 °C 999.2 hPa West 9.3 km/h 6.8 km/h 86 % 0.99 mm
17:14 10.8 °C 8.6 °C 999.5 hPa West 7.4 km/h 6.1 km/h 86 % 0.61 mm
17:19 11 °C 8.7 °C 999.5 hPa West 3.7 km/h 1 km/h 86 % 0.2 mm
17:24 10.9 °C 8.5 °C 999.5 hPa West 3.7 km/h 1.9 km/h 85 % 0.2 mm
17:29 10.9 °C 8.4 °C 999.9 hPa West 3.7 km/h 0.5 km/h 85 % 0 mm
17:34 10.8 °C 8.2 °C 999.9 hPa West 7.4 km/h 1.6 km/h 84 % 0 mm
17:39 10.7 °C 8.1 °C 999.9 hPa West 6.4 km/h 4 km/h 84 % 0 mm
17:44 10.7 °C 8.1 °C 999.9 hPa West 7.4 km/h 7.1 km/h 84 % 0 mm
17:49 10.7 °C 8.1 °C 1000.2 hPa West 5.6 km/h 1.6 km/h 84 % 0 mm
17:54 10.7 °C 8.2 °C 1000.2 hPa West 5.6 km/h 1.9 km/h 85 % 0 mm
17:59 10.6 °C 8.2 °C 1000.2 hPa West 7.4 km/h 6.9 km/h 85 % 0 mm
18:04 10.6 °C 8 °C 1000.2 hPa West 6.4 km/h 6.8 km/h 84 % 0 mm
18:09 10.5 °C 7.9 °C 1000.2 hPa West 9.3 km/h 6.9 km/h 84 % 0 mm
18:14 10.4 °C 7.8 °C 1000.2 hPa West 7.4 km/h 6 km/h 84 % 0 mm
18:19 10.4 °C 7.8 °C 1000.6 hPa West 5.6 km/h 4.8 km/h 84 % 0 mm
18:24 10.4 °C 7.8 °C 1000.6 hPa West 5.6 km/h 3.1 km/h 84 % 0 mm
18:29 10.3 °C 7.7 °C 1000.6 hPa West 5.6 km/h 4.3 km/h 84 % 0 mm
18:34 10.3 °C 7.7 °C 1000.9 hPa West 3.7 km/h 2.3 km/h 84 % 0 mm
18:39 10.2 °C 7.6 °C 1000.9 hPa West 5.6 km/h 3.9 km/h 84 % 0 mm
18:44 10.1 °C 7.7 °C 1000.9 hPa West 5.6 km/h 5.1 km/h 85 % 0 mm
18:49 10.1 °C 7.7 °C 1001.2 hPa West 5.6 km/h 4.2 km/h 85 % 0 mm
18:54 9.9 °C 7.7 °C 1001.2 hPa West 5.6 km/h 4 km/h 86 % 0 mm
18:59 9.9 °C 7.7 °C 1001.2 hPa West 8 km/h 6.9 km/h 86 % 0 mm
19:04 10.1 °C 7.8 °C 1001.6 hPa West 11.1 km/h 9.5 km/h 86 % 0 mm
19:09 10.5 °C 8.1 °C 1001.6 hPa West 11.1 km/h 8 km/h 85 % 0 mm
19:14 10.8 °C 8.2 °C 1001.9 hPa WSW 13 km/h 10.3 km/h 84 % 0 mm
19:19 10.9 °C 8.3 °C 1001.9 hPa WSW 12.9 km/h 4 km/h 84 % 0 mm
19:24 11 °C 8.4 °C 1001.9 hPa WSW 11.1 km/h 5.6 km/h 84 % 0 mm
19:29 11 °C 8.4 °C 1001.9 hPa WSW 7.4 km/h 7.1 km/h 84 % 0 mm
19:34 11 °C 8.4 °C 1001.9 hPa WSW 9.7 km/h 10.6 km/h 84 % 0 mm
19:39 11.1 °C 8.1 °C 1001.9 hPa WSW 14.8 km/h 13.2 km/h 82 % 0 mm
19:44 11.2 °C 8 °C 1002.3 hPa WSW 11.3 km/h 7.9 km/h 81 % 0 mm
19:49 11.1 °C 7.9 °C 1002.3 hPa WSW 14.8 km/h 9.3 km/h 81 % 0 mm
19:54 11.1 °C 7.9 °C 1002.3 hPa WSW 11.3 km/h 9.7 km/h 81 % 0 mm
19:59 11.1 °C 7.9 °C 1002.6 hPa WSW 13 km/h 6 km/h 81 % 0 mm
20:04 10.9 °C 7.8 °C 1002.6 hPa WSW 9.3 km/h 5.8 km/h 81 % 0 mm
20:09 10.8 °C 7.7 °C 1002.6 hPa WSW 9.3 km/h 7.1 km/h 81 % 0 mm
20:14 10.6 °C 7.5 °C 1002.6 hPa WSW 7.4 km/h 6.1 km/h 81 % 0 mm
20:19 10.5 °C 7.6 °C 1002.6 hPa WSW 5.6 km/h 3.2 km/h 82 % 0 mm
20:24 10.4 °C 7.4 °C 1002.9 hPa WSW 3.7 km/h 2.6 km/h 82 % 0 mm
20:29 10.3 °C 7.5 °C 1002.9 hPa Calm   0.6 km/h 83 % 0 mm
20:34 10.1 °C 7.3 °C 1002.9 hPa WSW 5.6 km/h 4 km/h 83 % 0 mm
20:39 10.1 °C 7.5 °C 1003.3 hPa WSW 4.8 km/h 2.9 km/h 84 % 0 mm
20:44 9.9 °C 7.4 °C 1003.3 hPa WSW 1.9 km/h 0.2 km/h 84 % 0 mm
20:49 9.9 °C 7.6 °C 1003.3 hPa WSW 6.4 km/h 3.5 km/h 85 % 0 mm
20:54 10.2 °C 7.8 °C 1003.3 hPa West 11.1 km/h 5.6 km/h 85 % 0 mm
20:59 10.4 °C 8 °C 1003.6 hPa West 13 km/h 11.6 km/h 85 % 0 mm
21:04 10.4 °C 8.1 °C 1003.6 hPa West 16.7 km/h 8.7 km/h 85 % 0 mm
21:09 10.4 °C 8.2 °C 1003.6 hPa West 14.8 km/h 5.6 km/h 86 % 0 mm
21:14 10.4 °C 8.1 °C 1003.6 hPa West 8 km/h 6.8 km/h 85 % 0 mm
21:19 10.4 °C 8.2 °C 1003.6 hPa West 11.1 km/h 7.6 km/h 86 % 0 mm
21:24 10.4 °C 8 °C 1003.6 hPa West 7.4 km/h 6 km/h 85 % 0 mm
21:29 10.3 °C 7.9 °C 1003.6 hPa West 6.4 km/h 1.4 km/h 85 % 0 mm
21:34 10.2 °C 7.8 °C 1003.9 hPa West 7.4 km/h 4.7 km/h 85 % 0 mm
21:39 10.1 °C 7.8 °C 1003.9 hPa West 11.3 km/h 6.6 km/h 86 % 0 mm
21:44 10 °C 7.8 °C 1003.9 hPa West 8 km/h 8.9 km/h 86 % 0 mm
21:49 10 °C 7.8 °C 1003.9 hPa West 9.7 km/h 5.8 km/h 86 % 0 mm
21:54 10 °C 7.8 °C 1004.3 hPa West 9.3 km/h 5.8 km/h 86 % 0 mm
21:59 10 °C 7.8 °C 1004.3 hPa West 5.6 km/h 5.8 km/h 86 % 0 mm
22:04 10 °C 7.6 °C 1004.3 hPa West 9.3 km/h 8.4 km/h 85 % 0 mm
22:09 10 °C 7.6 °C 1004.3 hPa West 9.7 km/h 7.9 km/h 85 % 0 mm
22:14 10.2 °C 7.8 °C 1004.3 hPa WSW 12.9 km/h 10.3 km/h 85 % 0 mm
22:19 10.3 °C 7.7 °C 1004.3 hPa WSW 11.1 km/h 6.4 km/h 84 % 0 mm
22:24 10.2 °C 7.6 °C 1004.3 hPa WSW 11.1 km/h 6.1 km/h 84 % 0 mm
22:29 10.1 °C 7.6 °C 1004.3 hPa WSW 7.4 km/h 4.8 km/h 84 % 0 mm
22:34 10 °C 7.4 °C 1004.3 hPa WSW 11.1 km/h 6.4 km/h 84 % 0 mm
22:39 9.8 °C 7.3 °C 1004.3 hPa WSW 9.3 km/h 7.6 km/h 84 % 0 mm
22:44 9.7 °C 7.3 °C 1004.3 hPa WSW 9.3 km/h 7.9 km/h 85 % 0 mm
22:49 9.6 °C 7.2 °C 1004.3 hPa WSW 14.8 km/h 8.2 km/h 85 % 0 mm
22:54 9.7 °C 7.5 °C 1004.3 hPa WSW 11.1 km/h 6.3 km/h 86 % 0 mm
22:59 9.7 °C 7.3 °C 1004.3 hPa WSW 13 km/h 8.9 km/h 85 % 0 mm
23:04 9.9 °C 7.5 °C 1004.6 hPa WSW 13 km/h 9 km/h 85 % 0 mm
23:09 10.1 °C 7.8 °C 1004.6 hPa WSW 13 km/h 9.5 km/h 86 % 0 mm
23:14 10.2 °C 7.8 °C 1004.6 hPa WSW 11.1 km/h 8.7 km/h 85 % 0 mm
23:19 10.2 °C 7.8 °C 1004.6 hPa WSW 11.1 km/h 9.8 km/h 85 % 0 mm
23:24 10.4 °C 8.1 °C 1004.6 hPa WSW 16.7 km/h 11.6 km/h 85 % 0 mm
23:29 10.6 °C 8 °C 1004.6 hPa West 16.1 km/h 13.5 km/h 84 % 0 mm
23:34 10.7 °C 8.1 °C 1004.6 hPa West 11.3 km/h 9.8 km/h 84 % 0 mm
23:39 10.7 °C 8.1 °C 1005 hPa West 13 km/h 10.9 km/h 84 % 0 mm
23:44 10.6 °C 8 °C 1005 hPa West 11.1 km/h 8.7 km/h 84 % 0 mm
23:49 10.6 °C 8 °C 1005.3 hPa West 9.3 km/h 7.2 km/h 84 % 0 mm
23:54 10.6 °C 8.1 °C 1005.3 hPa West 7.4 km/h 7.1 km/h 85 % 0 mm
23:59 10.5 °C 8.1 °C 1005 hPa West 8 km/h 7.6 km/h 85 % 0 mm
Ararat Weather
Compliments of Weather Underground - 2.25 mb
Click here to send mail.


ABOUT

Live weather data from Ararat, Victoria, Australia, 3377
Data uploaded from Cumulus every 5 minutes to Weather Underground.
This site then downloads the raw data for formatting and display.
Metric and imperial data can be displayed. Graphs and historical data available.
Includes Sun and Moon times and rain image live from BOM.

Check out Ararat Weather on Facebook, Twitter and Google +

Help support ongoing costs by checking out the ads





Follow @AraratWeather